Bookmark and Share
Track history (hours):
 

Liberty Island

Last reported at 2014-Apr-12 14:33 UTC. Time now 2014-Apr-16 16:00 UTC.
Position S 38°14' E 140°36'.

Length 178 m; draft 9.1 m.

Type: Cargo ship. MMSI: 355886000.

NotesDate/timePositionNaut miles runAvg speedWind from/ knotsBaromVisibWave heightAir tempDewpointWater temp
2014-Apr-12 14:33S 38°14' E 140°36'1211.7
2014-Apr-12 13:33S 38°19' E 140°49'1211.6
2014-Apr-12 12:33S 38°23' E 141°03'1211.6
2014-Apr-12 11:33S 38°30' E 141°16'1211.7
2014-Apr-12 10:33S 38°35' E 141°29'1211.7
2014-Apr-12 09:33S 38°38' E 141°44'1111.5
2014-Apr-12 08:33S 38°41' E 141°58'1111.5
2014-Apr-12 07:33S 38°44' E 142°12'1211.5
2014-Apr-12 06:33S 38°47' E 142°26'113 9.8
2014-Apr-11 19:04S 38°18' E 144°45'712.8
2014-Apr-11 18:29S 38°20' E 144°54'1212.2
2014-Apr-11 17:32S 38°09' E 144°48'1010.5
2014-Apr-11 16:33S 38°06' E 144°35'  
2014-Apr-07 13:03S 38°06' E 144°23'2 3.4
2014-Apr-07 12:31S 38°07' E 144°22'9 9.4
2014-Apr-07 11:33S 38°07' E 144°34'1010.0
2014-Apr-07 10:33S 38°07' E 144°46'1312.4
2014-Apr-07 09:33S 38°18' E 144°54'1210.1
2014-Apr-07 08:21S 38°17' E 144°39'63 6.9
2014-Apr-06 23:15S 38°58' E 145°39'1111.7
2014-Apr-06 22:16S 39°03' E 145°52'911.4
2014-Apr-06 21:30S 39°08' E 146°02'4411.0
2014-Apr-06 17:27S 39°01' E 146°59'1112.0
2014-Apr-06 16:32S 38°59' E 147°13'  

Dump ship's entire track history

sailing weather and tide predictions

Liberty Island — HPUY — position and weather